To NAV CANADA Home Page Login to a new session Search on AWWS site Disclaimer Vers la page française équivalente Tips FAQ What's new on the site To the Forecasts and Observations / NOTAM section To "File a Flight Plan" website Publications and other links Update of the User's profile FIC Telephone Numbers My Weather Data Folder Route Weather Data Regional Weather Data Local Weather Data To the Forecasts and Observations / NOTAM section
Request Generated 10/19/2018 at 15:28:08 UTC . Weather information available at that time is displayed.

METAR/TAF

POND INLET/NU    (show WxCam)

METAR CYIO 191500Z 16006KT 30SM BKN040 M15/M17 A2978 RMK SC7 -13.8/-19.0/0/19/MUCH LOOSE SLP094=
METAR CYIO 191400Z AUTO 16009KT 9SM OVC044 M17/M18 A2978 RMK SLP093=
METAR CYIO 191300Z AUTO 13005KT 9SM BKN046 M16/M18 A2978 RMK SLP094=

TAF CYIO 191238Z 1913/2001 18005KT P6SM SCT040
FM191900 20005KT P6SM FEW020 BKN040 TEMPO 1919/2001 5SM -SN
BKN020 BKN040
RMK FCST BASED ON AUTO OBS. NXT FCST BY 191900Z=
Your time UTC time
Weather data provided by Environment Canada and NAV CANADA